createdAt,value
2023-03-12T00:00:22.513Z,13.38
2023-03-12T00:02:49.991Z,8.23
2023-03-12T00:05:17.545Z,9.13
2023-03-12T00:07:44.962Z,8.00
2023-03-12T00:10:12.549Z,12.25
2023-03-12T00:12:39.926Z,7.55
2023-03-12T00:15:07.907Z,13.70
2023-03-12T00:17:35.363Z,10.70
2023-03-12T00:20:03.601Z,8.05
2023-03-12T00:22:30.978Z,14.80
2023-03-12T00:24:58.662Z,16.95
2023-03-12T00:27:26.705Z,9.50
2023-03-12T00:29:54.405Z,10.20
2023-03-12T00:32:21.846Z,12.32
2023-03-12T00:34:53.741Z,8.10
2023-03-12T00:37:21.465Z,9.63
2023-03-12T00:39:49.284Z,13.95
2023-03-12T00:42:16.780Z,12.93
2023-03-12T00:44:44.413Z,11.85
2023-03-12T00:47:12.970Z,8.60
2023-03-12T00:49:40.383Z,8.27
2023-03-12T00:52:07.982Z,8.15
2023-03-12T00:54:35.523Z,8.68
2023-03-12T00:57:03.011Z,9.70
2023-03-12T00:59:30.543Z,10.02
2023-03-12T01:01:58.056Z,9.13
2023-03-12T01:04:25.800Z,11.73
2023-03-12T01:06:53.321Z,8.90
2023-03-12T01:09:20.822Z,11.75
2023-03-12T01:11:48.322Z,11.30
2023-03-12T01:14:15.788Z,11.90
2023-03-12T01:16:43.261Z,11.25
2023-03-12T01:19:12.929Z,7.18
2023-03-12T01:21:40.360Z,8.02
2023-03-12T01:24:08.061Z,8.80
2023-03-12T01:26:35.585Z,10.13
2023-03-12T01:29:02.994Z,9.48
2023-03-12T01:31:30.485Z,15.75
2023-03-12T01:33:57.880Z,11.45
2023-03-12T01:36:27.238Z,13.75
2023-03-12T01:38:55.979Z,9.23
2023-03-12T01:41:23.957Z,10.57
2023-03-12T01:43:51.452Z,9.48
2023-03-12T01:46:21.968Z,11.90
2023-03-12T01:48:51.999Z,6.93
2023-03-12T01:51:20.228Z,11.10
2023-03-12T01:53:50.568Z,8.75
2023-03-12T01:56:20.144Z,8.32
2023-03-12T01:58:52.438Z,9.88
2023-03-12T02:01:20.865Z,8.10
2023-03-12T02:03:49.992Z,8.43
2023-03-12T02:06:19.823Z,8.48
2023-03-12T02:08:48.351Z,6.53
2023-03-12T02:11:16.054Z,11.20
2023-03-12T02:13:44.826Z,7.63
2023-03-12T02:16:12.524Z,9.80
2023-03-12T02:18:40.065Z,10.25
2023-03-12T02:21:19.784Z,11.25
2023-03-12T02:23:53.289Z,8.95
2023-03-12T02:26:21.799Z,8.43
2023-03-12T02:28:50.888Z,11.00
2023-03-12T02:31:20.596Z,10.32
2023-03-12T02:33:48.162Z,7.50
2023-03-12T02:36:15.680Z,7.45
2023-03-12T02:38:51.129Z,7.70
2023-03-12T02:41:30.735Z,7.25
2023-03-12T02:44:07.509Z,7.60
2023-03-12T02:46:39.083Z,6.85
2023-03-12T02:49:06.657Z,8.98
2023-03-12T02:51:34.057Z,11.75
2023-03-12T02:54:01.643Z,7.22
2023-03-12T02:56:29.672Z,6.20
2023-03-12T02:58:57.334Z,6.28
2023-03-12T03:01:25.766Z,6.70
2023-03-12T03:03:54.682Z,9.40
2023-03-12T03:06:23.488Z,7.38
2023-03-12T03:08:51.005Z,8.00
2023-03-12T03:11:18.738Z,5.78
2023-03-12T03:13:46.309Z,7.57
2023-03-12T03:16:13.932Z,5.32
2023-03-12T03:18:41.459Z,6.32
2023-03-12T03:21:09.946Z,8.57
2023-03-12T03:23:37.810Z,7.30
2023-03-12T03:26:05.368Z,7.03
2023-03-12T03:28:32.825Z,8.70
2023-03-12T03:31:03.699Z,5.80
2023-03-12T03:33:36.568Z,8.38
2023-03-12T03:36:06.433Z,8.18
2023-03-12T03:38:37.642Z,5.32
2023-03-12T03:41:05.973Z,9.98
2023-03-12T03:43:37.987Z,5.07
2023-03-12T03:46:06.816Z,9.00
2023-03-12T03:48:38.674Z,5.88
2023-03-12T03:51:08.404Z,9.05
2023-03-12T03:53:37.776Z,6.60
2023-03-12T03:56:09.337Z,6.88
2023-03-12T03:58:39.385Z,4.90
2023-03-12T04:01:07.346Z,8.77
2023-03-12T04:03:35.902Z,5.10
2023-03-12T04:06:05.941Z,8.15
2023-03-12T04:08:35.699Z,5.03
2023-03-12T04:11:08.752Z,4.55
2023-03-12T04:13:36.893Z,5.20
2023-03-12T04:16:04.838Z,4.38
2023-03-12T04:18:32.577Z,4.90
2023-03-12T04:21:01.573Z,5.50
2023-03-12T04:23:29.237Z,3.95
2023-03-12T04:25:57.011Z,12.77
2023-03-12T04:28:24.520Z,5.15
2023-03-12T04:31:01.954Z,6.25
2023-03-12T04:33:40.491Z,4.97
2023-03-12T04:36:09.649Z,6.72
2023-03-12T04:38:47.822Z,7.45
2023-03-12T04:41:17.648Z,6.57
2023-03-12T04:44:00.693Z,5.18
2023-03-12T04:46:28.442Z,7.88
2023-03-12T04:48:56.033Z,3.65
2023-03-12T04:51:23.573Z,9.65
2023-03-12T04:53:51.547Z,5.82
2023-03-12T04:56:19.178Z,8.27
2023-03-12T04:58:48.037Z,6.13
2023-03-12T05:01:24.593Z,8.13
2023-03-12T05:03:52.518Z,6.47
2023-03-12T05:06:20.516Z,3.97
2023-03-12T05:08:48.312Z,4.57
2023-03-12T05:11:16.120Z,4.45
2023-03-12T05:13:43.597Z,6.15
2023-03-12T05:16:11.461Z,8.98
2023-03-12T05:18:39.005Z,6.47
2023-03-12T05:21:10.896Z,7.57
2023-03-12T05:23:42.575Z,8.95
2023-03-12T05:26:23.246Z,7.03
2023-03-12T05:28:52.553Z,5.82
2023-03-12T05:31:21.430Z,3.92
2023-03-12T05:33:52.594Z,4.15
2023-03-12T05:36:21.003Z,5.85
2023-03-12T05:38:48.458Z,8.93
2023-03-12T05:41:22.090Z,5.63
2023-03-12T05:43:50.741Z,5.25
2023-03-12T05:46:18.646Z,6.30
2023-03-12T05:48:46.590Z,8.80
2023-03-12T05:51:15.238Z,5.07
2023-03-12T05:53:42.822Z,4.80
2023-03-12T05:56:12.489Z,4.68
2023-03-12T05:58:40.562Z,6.32
2023-03-12T06:01:16.156Z,6.28
2023-03-12T06:03:44.705Z,5.10
2023-03-12T06:06:12.612Z,8.00
2023-03-12T06:08:41.747Z,6.05
2023-03-12T06:11:10.754Z,6.35
2023-03-12T06:13:38.333Z,4.60
2023-03-12T06:16:06.973Z,6.45
2023-03-12T06:18:35.764Z,4.63
2023-03-12T06:21:14.320Z,6.97
2023-03-12T06:23:42.489Z,5.47
2023-03-12T06:26:14.164Z,5.82
2023-03-12T06:28:41.767Z,7.00
2023-03-12T06:31:09.522Z,5.18
2023-03-12T06:33:37.048Z,6.97
2023-03-12T06:36:06.047Z,5.07
2023-03-12T06:38:33.796Z,6.40
2023-03-12T06:41:02.562Z,4.57
2023-03-12T06:43:31.022Z,3.83
2023-03-12T06:45:59.398Z,5.93
2023-03-12T06:48:28.022Z,4.88
2023-03-12T06:50:55.772Z,5.20
2023-03-12T06:53:25.338Z,7.72
2023-03-12T06:55:53.022Z,6.85
2023-03-12T06:58:20.521Z,4.72
2023-03-12T07:00:48.005Z,4.80
2023-03-12T07:03:15.563Z,7.18
2023-03-12T07:05:46.684Z,5.57
2023-03-12T07:08:14.399Z,7.20
2023-03-12T07:10:41.916Z,5.22
2023-03-12T07:13:09.496Z,6.38
2023-03-12T07:15:37.143Z,5.10
2023-03-12T07:18:05.403Z,5.05
2023-03-12T07:20:33.169Z,7.00
2023-03-12T07:23:00.955Z,5.90
2023-03-12T07:25:28.399Z,5.63
2023-03-12T07:27:55.928Z,5.53
2023-03-12T07:30:23.347Z,6.35
2023-03-12T07:32:50.827Z,6.80
2023-03-12T07:35:18.294Z,9.15
2023-03-12T07:37:45.876Z,8.30
2023-03-12T07:40:13.520Z,7.60
2023-03-12T07:42:41.016Z,5.78
2023-03-12T07:45:08.863Z,5.72
2023-03-12T07:47:36.432Z,8.70
2023-03-12T07:50:04.149Z,9.55
2023-03-12T07:52:31.681Z,7.95
2023-03-12T07:54:59.196Z,7.15
2023-03-12T07:57:26.650Z,6.00
2023-03-12T07:59:54.132Z,6.65
2023-03-12T08:02:21.630Z,4.93
2023-03-12T08:04:49.213Z,6.38
2023-03-12T08:07:16.930Z,7.65
2023-03-12T08:09:44.463Z,7.63
2023-03-12T08:12:12.031Z,5.25
2023-03-12T08:14:39.699Z,6.18
2023-03-12T08:17:07.144Z,5.95
2023-03-12T08:19:34.601Z,6.03
2023-03-12T08:22:02.094Z,5.55
2023-03-12T08:24:29.594Z,6.00
2023-03-12T08:26:57.010Z,6.63
2023-03-12T08:29:24.459Z,5.00
2023-03-12T08:32:04.175Z,6.20
2023-03-12T08:34:32.381Z,5.03
2023-03-12T08:37:00.079Z,7.05
2023-03-12T08:39:27.595Z,7.18
2023-03-12T08:41:55.570Z,6.85
2023-03-12T08:44:23.680Z,5.43
2023-03-12T08:46:51.443Z,8.00
2023-03-12T08:49:19.426Z,5.50
2023-03-12T08:51:46.830Z,4.88
2023-03-12T08:54:14.262Z,6.47
2023-03-12T08:56:46.662Z,6.90
2023-03-12T08:59:14.713Z,5.50
2023-03-12T09:01:43.852Z,8.02
2023-03-12T09:04:11.568Z,8.57
2023-03-12T09:06:39.091Z,5.28
2023-03-12T09:09:09.077Z,7.05
2023-03-12T09:11:39.650Z,7.00
2023-03-12T09:15:01.045Z,6.25
2023-03-12T09:16:55.121Z,5.35
2023-03-12T09:19:22.636Z,7.45
2023-03-12T09:21:50.086Z,6.60
2023-03-12T09:24:17.564Z,5.63
2023-03-12T09:26:45.112Z,5.30
2023-03-12T09:29:12.532Z,6.15
2023-03-12T09:31:40.017Z,6.32
2023-03-12T09:34:07.629Z,7.80
2023-03-12T09:36:35.976Z,6.03
2023-03-12T09:39:03.543Z,6.57
2023-03-12T09:41:32.565Z,7.75
2023-03-12T09:44:18.606Z,10.98
2023-03-12T09:46:48.861Z,6.65
2023-03-12T09:49:27.558Z,8.45
2023-03-12T09:51:56.583Z,8.27
2023-03-12T09:54:37.528Z,7.15
2023-03-12T09:57:09.979Z,11.98
2023-03-12T09:59:37.428Z,12.13
2023-03-12T10:02:09.205Z,9.23
2023-03-12T10:04:58.673Z,8.48
2023-03-12T10:07:49.804Z,6.43
2023-03-12T10:10:20.421Z,7.80
2023-03-12T10:12:53.940Z,7.10
2023-03-12T10:15:21.487Z,7.25
2023-03-12T10:17:58.181Z,10.25
2023-03-12T10:20:34.999Z,6.20
2023-03-12T10:23:11.342Z,6.10
2023-03-12T10:25:41.600Z,7.15
2023-03-12T10:28:18.171Z,6.45
2023-03-12T10:30:57.887Z,7.97
2023-03-12T10:33:31.441Z,6.75
2023-03-12T10:35:59.698Z,8.00
2023-03-12T10:38:29.974Z,7.22
2023-03-12T10:40:57.451Z,7.88
2023-03-12T10:43:24.888Z,6.07
2023-03-12T10:46:02.614Z,6.90
2023-03-12T10:48:30.058Z,6.82
2023-03-12T10:51:11.362Z,7.75
2023-03-12T10:53:48.082Z,6.80
2023-03-12T10:56:17.277Z,6.63
2023-03-12T10:58:49.024Z,7.30
2023-03-12T11:01:16.568Z,5.80
2023-03-12T11:03:44.532Z,7.53
2023-03-12T11:06:20.622Z,8.40
2023-03-12T11:09:15.748Z,9.95
2023-03-12T11:11:45.355Z,5.78
2023-03-12T11:14:22.564Z,6.78
2023-03-12T11:16:50.785Z,5.50
2023-03-12T11:19:29.487Z,6.47
2023-03-12T11:21:58.902Z,5.70
2023-03-12T11:24:26.605Z,7.00
2023-03-12T11:27:06.643Z,7.85
2023-03-12T11:29:40.016Z,6.05
2023-03-12T11:32:15.955Z,5.20
2023-03-12T11:34:47.701Z,5.80
2023-03-12T11:37:16.794Z,5.97
2023-03-12T11:39:44.127Z,7.03
2023-03-12T11:42:24.465Z,7.93
2023-03-12T11:45:04.517Z,7.35
2023-03-12T11:47:34.915Z,6.40
2023-03-12T11:50:17.759Z,6.55
2023-03-12T11:53:00.479Z,7.57
2023-03-12T11:55:46.502Z,7.03
2023-03-12T11:58:19.711Z,4.35
2023-03-12T12:00:56.860Z,4.68
2023-03-12T12:03:42.697Z,7.10
2023-03-12T12:06:10.133Z,8.65
2023-03-12T12:08:56.341Z,6.57
2023-03-12T12:11:37.435Z,7.13
2023-03-12T12:14:23.456Z,6.45
2023-03-12T12:17:09.655Z,5.10
2023-03-12T12:19:45.600Z,5.13
2023-03-12T12:22:13.023Z,4.22
2023-03-12T12:24:48.497Z,4.50
2023-03-12T12:27:21.212Z,4.07
2023-03-12T12:29:50.148Z,5.10
2023-03-12T12:32:23.897Z,3.40
2023-03-12T12:34:52.116Z,3.15
2023-03-12T12:37:25.897Z,2.30
2023-03-12T12:40:08.681Z,4.35
2023-03-12T12:42:37.615Z,4.35
2023-03-12T12:45:05.611Z,3.53
2023-03-12T12:47:53.992Z,4.35
2023-03-12T12:50:23.294Z,6.80
2023-03-12T12:53:00.991Z,5.68
2023-03-12T12:55:54.598Z,5.47
2023-03-12T12:58:24.746Z,7.00
2023-03-12T13:00:54.244Z,6.72
2023-03-12T13:03:22.960Z,6.70
2023-03-12T13:05:53.428Z,5.57
2023-03-12T13:08:34.662Z,4.35
2023-03-12T13:11:24.563Z,4.82
2023-03-12T13:14:11.981Z,6.18
2023-03-12T13:16:40.347Z,7.55
2023-03-12T13:19:16.905Z,6.93
2023-03-12T13:21:57.259Z,5.75
2023-03-12T13:24:29.927Z,7.05
2023-03-12T13:27:01.726Z,4.25
2023-03-12T13:29:29.259Z,3.97
2023-03-12T13:31:57.184Z,4.05
2023-03-12T13:34:27.546Z,4.57
2023-03-12T13:37:03.106Z,4.32
2023-03-12T13:41:58.997Z,5.32
2023-03-12T13:44:39.034Z,6.63
2023-03-12T13:47:24.878Z,5.80
2023-03-12T13:49:58.212Z,7.22
2023-03-12T13:52:42.070Z,8.30
2023-03-12T13:55:15.621Z,7.70
2023-03-12T13:57:55.325Z,6.57
2023-03-12T14:00:52.429Z,6.47
2023-03-12T14:03:26.079Z,7.25
2023-03-12T14:05:59.387Z,6.80
2023-03-12T14:08:35.974Z,6.68
2023-03-12T14:11:22.302Z,8.90
2023-03-12T14:14:08.198Z,7.88
2023-03-12T14:16:39.808Z,8.13
2023-03-12T14:19:07.827Z,7.85
2023-03-12T14:21:38.562Z,5.53
2023-03-12T14:24:08.714Z,9.27
2023-03-12T14:26:37.602Z,5.97
2023-03-12T14:29:18.439Z,6.35
2023-03-12T14:31:46.794Z,6.82
2023-03-12T14:34:20.836Z,7.45
2023-03-12T14:36:51.140Z,25.60
2023-03-12T14:39:21.726Z,28.67
2023-03-12T14:41:52.789Z,9.10
2023-03-12T14:44:27.118Z,8.02
2023-03-12T14:47:01.539Z,16.60
2023-03-12T14:49:29.538Z,67.53
2023-03-12T14:51:59.576Z,20.95
2023-03-12T14:54:28.389Z,58.15
2023-03-12T14:56:56.130Z,19.88
2023-03-12T14:59:23.629Z,7.55
2023-03-12T15:01:51.405Z,7.75
2023-03-12T15:04:20.356Z,8.07
2023-03-12T15:06:53.257Z,6.20
2023-03-12T15:09:24.932Z,6.93
2023-03-12T15:11:56.897Z,10.38
2023-03-12T15:14:25.258Z,7.85
2023-03-12T15:16:53.055Z,6.30
2023-03-12T15:19:40.794Z,14.15
2023-03-12T15:22:12.139Z,8.98
2023-03-12T15:24:40.821Z,17.70
2023-03-12T15:27:20.256Z,10.13
2023-03-12T15:29:47.850Z,7.55
2023-03-12T15:32:16.526Z,8.85
2023-03-12T15:34:44.388Z,10.52
2023-03-12T15:37:24.588Z,10.93
2023-03-12T15:39:53.386Z,7.60
2023-03-12T15:42:23.679Z,8.82
2023-03-12T15:44:51.186Z,8.30
2023-03-12T15:47:23.607Z,10.77
2023-03-12T15:49:53.232Z,10.57
2023-03-12T15:52:24.706Z,9.30
2023-03-12T15:55:01.406Z,8.43
2023-03-12T15:57:29.830Z,8.10
2023-03-12T16:00:12.817Z,12.13
2023-03-12T16:02:55.794Z,10.02
2023-03-12T16:05:31.460Z,13.52
2023-03-12T16:08:01.323Z,38.80
2023-03-12T16:10:29.122Z,12.20
2023-03-12T16:13:00.284Z,10.55
2023-03-12T16:15:30.794Z,11.15
2023-03-12T16:17:58.315Z,18.10
2023-03-12T16:20:25.780Z,14.90
2023-03-12T16:22:53.343Z,15.50
2023-03-12T16:25:21.232Z,18.10
2023-03-12T16:27:50.726Z,16.25
2023-03-12T16:30:28.855Z,14.25
2023-03-12T16:32:56.994Z,13.77
2023-03-12T16:35:24.529Z,10.45
2023-03-12T16:37:52.361Z,9.32
2023-03-12T16:40:32.637Z,11.70
2023-03-12T16:43:03.599Z,11.10
2023-03-12T16:45:32.165Z,20.60
2023-03-12T16:48:00.891Z,15.27
2023-03-12T16:50:28.944Z,21.08
2023-03-12T16:52:56.639Z,19.38
2023-03-12T16:55:27.479Z,31.48
2023-03-12T16:57:57.014Z,27.95
2023-03-12T17:00:25.944Z,26.70
2023-03-12T17:02:57.803Z,35.03
2023-03-12T17:05:29.720Z,27.40
2023-03-12T17:07:58.306Z,25.98
2023-03-12T17:10:27.031Z,20.50
2023-03-12T17:12:55.689Z,18.67
2023-03-12T17:15:26.182Z,20.30
2023-03-12T17:17:55.746Z,18.27
2023-03-12T17:20:24.625Z,32.67
2023-03-12T17:22:52.190Z,28.35
2023-03-12T17:25:22.621Z,29.17
2023-03-12T17:27:50.247Z,29.80
2023-03-12T17:30:17.882Z,34.95
2023-03-12T17:32:45.470Z,31.95
2023-03-12T17:35:13.058Z,33.25
2023-03-12T17:37:40.526Z,25.40
2023-03-12T17:40:09.739Z,31.83
2023-03-12T17:42:38.317Z,28.73
2023-03-12T17:45:07.388Z,39.20
2023-03-12T17:47:34.836Z,42.53
2023-03-12T17:50:02.280Z,46.95
2023-03-12T17:52:29.981Z,47.47
2023-03-12T17:54:57.519Z,23.65
2023-03-12T17:57:25.224Z,22.83
2023-03-12T17:59:52.688Z,18.88
2023-03-12T18:02:20.197Z,18.00
2023-03-12T18:04:47.721Z,16.27
2023-03-12T18:07:15.180Z,16.92
2023-03-12T18:09:42.673Z,18.20
2023-03-12T18:12:12.099Z,11.68
2023-03-12T18:14:39.671Z,12.20
2023-03-12T18:17:07.025Z,11.23
2023-03-12T18:19:35.601Z,11.57
2023-03-12T18:22:03.291Z,12.85
2023-03-12T18:24:30.848Z,23.02
2023-03-12T18:27:00.391Z,16.33
2023-03-12T18:29:27.962Z,36.72
2023-03-12T18:31:55.393Z,30.00
2023-03-12T18:34:23.622Z,28.20
2023-03-12T18:36:51.126Z,29.02
2023-03-12T18:39:18.797Z,39.97
2023-03-12T18:41:46.188Z,38.00
2023-03-12T18:44:13.703Z,44.58
2023-03-12T18:46:41.174Z,47.60
2023-03-12T18:49:09.803Z,42.47
2023-03-12T18:51:37.234Z,44.00
2023-03-12T18:54:04.762Z,46.35
2023-03-12T18:56:32.411Z,47.75
2023-03-12T18:59:00.923Z,44.03
2023-03-12T19:01:28.437Z,41.65
2023-03-12T19:03:56.049Z,45.53
2023-03-12T19:06:23.493Z,47.70
2023-03-12T19:08:50.888Z,44.13
2023-03-12T19:11:18.387Z,38.25
2023-03-12T19:13:49.480Z,34.13
2023-03-12T19:16:19.900Z,24.77
2023-03-12T19:18:47.375Z,16.42
2023-03-12T19:21:14.916Z,15.05
2023-03-12T19:23:42.392Z,15.18
2023-03-12T19:26:09.949Z,19.65
2023-03-12T19:28:37.919Z,16.63
2023-03-12T19:31:06.891Z,14.13
2023-03-12T19:33:34.666Z,14.88
2023-03-12T19:36:02.152Z,10.90
2023-03-12T19:38:30.233Z,10.73
2023-03-12T19:40:58.619Z,15.48
2023-03-12T19:43:26.404Z,22.50
2023-03-12T19:45:54.830Z,21.67
2023-03-12T19:48:22.522Z,23.65
2023-03-12T19:50:51.547Z,36.20
2023-03-12T19:53:19.749Z,34.40
2023-03-12T19:55:48.986Z,28.45
2023-03-12T19:58:16.732Z,23.50
2023-03-12T20:00:44.560Z,22.77
2023-03-12T20:03:12.210Z,25.50
2023-03-12T20:05:43.050Z,29.95
2023-03-12T20:08:11.315Z,27.02
2023-03-12T20:10:39.496Z,18.20
2023-03-12T20:13:08.897Z,13.00
2023-03-12T20:15:39.599Z,12.35
2023-03-12T20:18:07.059Z,12.65
2023-03-12T20:20:34.548Z,10.98
2023-03-12T20:23:02.004Z,13.98
2023-03-12T20:25:29.458Z,12.80
2023-03-12T20:27:57.838Z,12.63
2023-03-12T20:30:25.284Z,12.32
2023-03-12T20:32:52.827Z,13.90
2023-03-12T20:35:20.248Z,12.77
2023-03-12T20:37:47.718Z,12.02
2023-03-12T20:40:15.207Z,13.23
2023-03-12T20:42:43.421Z,11.68
2023-03-12T20:45:11.029Z,13.82
2023-03-12T20:47:40.315Z,13.25
2023-03-12T20:50:08.416Z,12.32
2023-03-12T20:52:35.853Z,12.90
2023-03-12T20:55:03.621Z,13.98
2023-03-12T20:57:31.046Z,14.10
2023-03-12T20:59:58.581Z,12.55
2023-03-12T21:02:26.083Z,11.98
2023-03-12T21:04:54.040Z,11.80
2023-03-12T21:07:21.412Z,13.25
2023-03-12T21:09:48.898Z,14.70
2023-03-12T21:12:16.396Z,14.20
2023-03-12T21:14:43.916Z,13.48
2023-03-12T21:17:13.715Z,12.60
2023-03-12T21:19:41.826Z,14.55
2023-03-12T21:22:09.973Z,14.52
2023-03-12T21:24:37.457Z,16.15
2023-03-12T21:27:04.944Z,13.43
2023-03-12T21:29:32.436Z,13.02
2023-03-12T21:31:59.905Z,15.55
2023-03-12T21:34:29.678Z,14.98
2023-03-12T21:36:57.361Z,14.00
2023-03-12T21:39:24.813Z,13.63
2023-03-12T21:41:52.198Z,18.75
2023-03-12T21:44:19.621Z,15.00
2023-03-12T21:46:47.037Z,12.52
2023-03-12T21:49:17.946Z,13.63
2023-03-12T21:51:45.838Z,13.65
2023-03-12T21:54:13.355Z,14.60
2023-03-12T21:56:41.865Z,13.00
2023-03-12T21:59:10.577Z,14.73
2023-03-12T22:01:38.535Z,12.93
2023-03-12T22:04:06.143Z,13.90
2023-03-12T22:06:33.667Z,12.90
2023-03-12T22:09:01.136Z,16.23
2023-03-12T22:11:28.589Z,14.57
2023-03-12T22:13:56.012Z,13.73
2023-03-12T22:16:23.472Z,15.13
2023-03-12T22:18:50.948Z,15.32
2023-03-12T22:21:19.595Z,17.02
2023-03-12T22:23:48.119Z,18.55
2023-03-12T22:26:15.786Z,14.95
2023-03-12T22:28:43.269Z,16.63
2023-03-12T22:31:10.961Z,12.95
2023-03-12T22:33:38.492Z,16.88
2023-03-12T22:36:10.312Z,14.60
2023-03-12T22:38:38.533Z,15.43
2023-03-12T22:41:19.857Z,14.82
2023-03-12T22:43:47.840Z,15.20
2023-03-12T22:46:16.651Z,13.32
2023-03-12T22:48:44.717Z,14.77
2023-03-12T22:51:12.498Z,17.95
2023-03-12T22:53:39.986Z,21.88
2023-03-12T22:56:08.551Z,15.57
2023-03-12T22:58:36.148Z,19.45
2023-03-12T23:01:07.623Z,18.67
2023-03-12T23:03:35.944Z,16.52
2023-03-12T23:06:03.984Z,14.77
2023-03-12T23:08:31.568Z,15.82
2023-03-12T23:10:59.859Z,15.82
2023-03-12T23:13:28.645Z,15.98
2023-03-12T23:15:56.052Z,14.52
2023-03-12T23:18:23.487Z,14.15
2023-03-12T23:20:58.130Z,14.13
2023-03-12T23:23:25.655Z,14.40
2023-03-12T23:25:56.939Z,18.48
2023-03-12T23:28:24.559Z,13.80
2023-03-12T23:30:56.447Z,15.35
2023-03-12T23:33:24.399Z,15.43
2023-03-12T23:35:55.471Z,13.50
2023-03-12T23:38:23.113Z,15.93
2023-03-12T23:40:50.752Z,15.30
2023-03-12T23:43:18.254Z,15.23
2023-03-12T23:45:45.710Z,14.20
2023-03-12T23:48:13.190Z,14.45
2023-03-12T23:50:41.285Z,15.68
2023-03-12T23:53:08.685Z,15.93
2023-03-12T23:55:36.260Z,15.38
2023-03-12T23:58:03.635Z,17.00
